createdAt,value
2018-06-23T00:01:21.608Z,97791.98
2018-06-23T00:03:49.189Z,97786.23
2018-06-23T00:06:16.758Z,97780.47
2018-06-23T00:08:44.420Z,97786.23
2018-06-23T00:11:11.820Z,97782.44
2018-06-23T00:13:39.432Z,97784.63
2018-06-23T00:16:06.911Z,97787.27
2018-06-23T00:18:34.429Z,97784.42
2018-06-23T00:21:01.929Z,97783.72
2018-06-23T00:23:29.368Z,97791.48
2018-06-23T00:25:56.790Z,97794.97
2018-06-23T00:28:24.205Z,97791.77
2018-06-23T00:30:51.781Z,97790.28
2018-06-23T00:33:19.276Z,97790.87
2018-06-23T00:35:46.746Z,97791.53
2018-06-23T00:38:14.185Z,97791.30
2018-06-23T00:40:41.623Z,97792.63
2018-06-23T00:43:09.340Z,97793.72
2018-06-23T00:45:36.869Z,97793.03
2018-06-23T00:48:04.426Z,97776.55
2018-06-23T00:50:31.832Z,97791.28
2018-06-23T00:52:59.315Z,97782.37
2018-06-23T00:55:26.725Z,97779.14
2018-06-23T00:57:54.163Z,97772.39
2018-06-23T01:00:22.054Z,97775.83
2018-06-23T01:02:49.486Z,97780.64
2018-06-23T01:05:17.051Z,97778.52
2018-06-23T01:07:44.486Z,97769.50
2018-06-23T01:10:12.081Z,97768.28
2018-06-23T01:12:39.568Z,97775.81
2018-06-23T01:15:07.071Z,97773.23
2018-06-23T01:17:34.554Z,97778.81
2018-06-23T01:20:01.964Z,97770.52
2018-06-23T01:22:29.379Z,97771.36
2018-06-23T01:24:56.860Z,97764.16
2018-06-23T01:27:24.375Z,97761.13
2018-06-23T01:29:51.936Z,97765.88
2018-06-23T01:32:19.409Z,97759.98
2018-06-23T01:34:46.858Z,97760.02
2018-06-23T01:37:14.492Z,97765.39
2018-06-23T01:39:41.905Z,97762.50
2018-06-23T01:42:09.347Z,97766.95
2018-06-23T01:44:36.770Z,97769.70
2018-06-23T01:47:04.220Z,97767.17
2018-06-23T01:49:31.687Z,97763.97
2018-06-23T01:51:59.100Z,97761.80
2018-06-23T01:54:26.575Z,97762.33
2018-06-23T01:56:54.001Z,97773.71
2018-06-23T01:59:21.478Z,97765.15
2018-06-23T02:01:48.901Z,97768.87
2018-06-23T02:04:16.290Z,97767.13
2018-06-23T02:06:43.876Z,97766.47
2018-06-23T02:09:12.145Z,97764.28
2018-06-23T02:11:39.627Z,97761.63
2018-06-23T02:14:07.740Z,97762.81
2018-06-23T02:16:40.584Z,97766.89
2018-06-23T02:22:18.567Z,97756.69
2018-06-23T02:25:00.938Z,97753.56
2018-06-23T02:30:24.568Z,97763.59
2018-06-23T02:32:52.199Z,97757.21
2018-06-23T02:35:19.652Z,97764.55
2018-06-23T02:37:47.063Z,97764.06
2018-06-23T02:40:14.614Z,97766.22
2018-06-23T02:42:42.227Z,97765.39
2018-06-23T02:45:09.666Z,97773.42
2018-06-23T02:47:37.175Z,97768.75
2018-06-23T02:50:04.756Z,97772.72
2018-06-23T02:52:32.266Z,97768.47
2018-06-23T02:54:59.756Z,97767.32
2018-06-23T02:57:27.207Z,97775.36
2018-06-23T02:59:54.701Z,97777.44
2018-06-23T03:02:22.172Z,97775.61
2018-06-23T03:04:49.670Z,97777.72
2018-06-23T03:07:17.331Z,97776.53
2018-06-23T03:09:44.816Z,97777.07
2018-06-23T03:12:12.292Z,97780.59
2018-06-23T03:14:39.738Z,97773.17
2018-06-23T03:17:07.160Z,97775.45
2018-06-23T03:19:34.584Z,97784.66
2018-06-23T03:22:02.061Z,97783.06
2018-06-23T03:24:29.478Z,97778.94
2018-06-23T03:26:56.971Z,97786.77
2018-06-23T03:29:24.401Z,97780.61
2018-06-23T03:31:51.925Z,97775.37
2018-06-23T03:34:19.363Z,97781.36
2018-06-23T03:36:46.852Z,97782.59
2018-06-23T03:39:14.307Z,97786.97
2018-06-23T03:41:41.728Z,97780.30
2018-06-23T03:44:09.807Z,97780.84
2018-06-23T03:46:38.036Z,97782.85
2018-06-23T03:49:05.478Z,97777.80
2018-06-23T03:51:32.953Z,97776.70
2018-06-23T03:54:00.487Z,97781.24
2018-06-23T03:56:27.959Z,97776.16
2018-06-23T03:58:55.411Z,97773.41
2018-06-23T04:01:22.864Z,97778.37
2018-06-23T04:03:50.318Z,97776.48
2018-06-23T04:06:17.801Z,97778.30
2018-06-23T04:08:45.236Z,97778.69
2018-06-23T04:11:12.905Z,97774.58
2018-06-23T04:13:40.495Z,97777.03
2018-06-23T04:16:07.941Z,97781.11
2018-06-23T04:18:35.461Z,97776.88
2018-06-23T04:21:02.921Z,97777.41
2018-06-23T04:23:30.320Z,97778.22
2018-06-23T04:25:57.833Z,97774.80
2018-06-23T04:28:25.434Z,97776.23
2018-06-23T04:30:52.867Z,97769.45
2018-06-23T04:33:20.322Z,97782.41
2018-06-23T04:35:47.796Z,97783.63
2018-06-23T04:38:15.386Z,97785.64
2018-06-23T04:40:42.795Z,97784.08
2018-06-23T04:43:10.411Z,97780.54
2018-06-23T04:45:37.905Z,97789.38
2018-06-23T04:48:05.377Z,97793.80
2018-06-23T04:50:32.897Z,97787.05
2018-06-23T04:53:00.342Z,97795.89
2018-06-23T04:55:27.767Z,97791.50
2018-06-23T04:57:55.193Z,97795.85
2018-06-23T05:00:22.661Z,97792.06
2018-06-23T05:02:50.134Z,97794.51
2018-06-23T05:05:17.629Z,97792.27
2018-06-23T05:07:45.432Z,97803.85
2018-06-23T05:10:12.924Z,97799.70
2018-06-23T05:12:40.421Z,97796.48
2018-06-23T05:15:07.893Z,97803.30
2018-06-23T05:17:35.461Z,97793.52
2018-06-23T05:20:02.970Z,97795.75
2018-06-23T05:22:30.439Z,97798.73
2018-06-23T05:24:57.916Z,97797.87
2018-06-23T05:27:25.347Z,97795.75
2018-06-23T05:29:52.823Z,97800.10
2018-06-23T05:32:20.326Z,97803.52
2018-06-23T05:34:47.766Z,97793.03
2018-06-23T05:37:15.179Z,97803.66
2018-06-23T05:39:42.776Z,97799.48
2018-06-23T05:42:10.283Z,97799.36
2018-06-23T05:44:37.763Z,97795.33
2018-06-23T05:47:05.279Z,97791.59
2018-06-23T05:49:32.721Z,97800.92
2018-06-23T05:52:00.156Z,97805.84
2018-06-23T05:54:27.614Z,97803.30
2018-06-23T05:56:55.032Z,97801.62
2018-06-23T05:59:22.446Z,97812.23
2018-06-23T06:01:49.880Z,97813.63
2018-06-23T06:04:17.358Z,97794.52
2018-06-23T06:06:44.789Z,97811.31
2018-06-23T06:09:12.284Z,97809.31
2018-06-23T06:11:39.793Z,97803.66
2018-06-23T06:14:07.284Z,97804.74
2018-06-23T06:16:34.766Z,97805.71
2018-06-23T06:19:02.199Z,97804.52
2018-06-23T06:21:29.776Z,97814.15
2018-06-23T06:23:58.661Z,97810.17
2018-06-23T06:26:26.274Z,97816.13
2018-06-23T06:28:53.774Z,97812.39
2018-06-23T06:31:22.055Z,97817.62
2018-06-23T06:33:49.716Z,97806.48
2018-06-23T06:36:17.946Z,97818.74
2018-06-23T06:38:45.471Z,97803.05
2018-06-23T06:41:12.985Z,97810.86
2018-06-23T06:43:40.411Z,97800.53
2018-06-23T06:46:07.872Z,97802.18
2018-06-23T06:48:35.329Z,97798.31
2018-06-23T06:51:02.791Z,97809.07
2018-06-23T06:53:30.226Z,97810.23
2018-06-23T06:55:57.673Z,97806.89
2018-06-23T06:58:25.102Z,97817.53
2018-06-23T07:00:52.667Z,97813.22
2018-06-23T07:03:20.147Z,97803.30
2018-06-23T07:05:47.710Z,97812.95
2018-06-23T07:08:15.343Z,97817.93
2018-06-23T07:10:42.817Z,97814.13
2018-06-23T07:13:10.301Z,97814.02
2018-06-23T07:15:37.930Z,97803.56
2018-06-23T07:18:05.387Z,97804.81
2018-06-23T07:20:33.037Z,97808.57
2018-06-23T07:23:00.603Z,97808.09
2018-06-23T07:25:28.075Z,97812.19
2018-06-23T07:27:55.489Z,97812.15
2018-06-23T07:30:22.930Z,97807.75
2018-06-23T07:32:50.346Z,97815.03
2018-06-23T07:35:17.973Z,97806.09
2018-06-23T07:37:45.349Z,97803.98
2018-06-23T07:40:12.805Z,97810.52
2018-06-23T07:42:40.236Z,97802.36
2018-06-23T07:45:07.722Z,97804.14
2018-06-23T07:47:35.290Z,97800.81
2018-06-23T07:50:02.742Z,97805.38
2018-06-23T07:52:30.296Z,97806.78
2018-06-23T07:54:57.707Z,97806.63
2018-06-23T07:57:25.142Z,97798.69
2018-06-23T07:59:52.751Z,97803.32
2018-06-23T08:02:20.853Z,97801.66
2018-06-23T08:04:48.318Z,97812.55
2018-06-23T08:07:15.751Z,97794.23
2018-06-23T08:09:43.171Z,97806.70
2018-06-23T08:12:10.751Z,97790.43
2018-06-23T08:14:38.201Z,97790.35
2018-06-23T08:17:05.592Z,97793.14
2018-06-23T08:19:33.001Z,97795.55
2018-06-23T08:22:00.431Z,97796.48
2018-06-23T08:24:27.954Z,97794.37
2018-06-23T08:26:55.403Z,97795.88
2018-06-23T08:29:22.854Z,97792.88
2018-06-23T08:31:50.289Z,97785.88
2018-06-23T08:34:17.679Z,97786.14
2018-06-23T08:36:45.110Z,97778.94
2018-06-23T08:39:12.552Z,97795.94
2018-06-23T08:41:40.103Z,97784.95
2018-06-23T08:44:07.518Z,97790.90
2018-06-23T08:46:35.526Z,97785.05
2018-06-23T08:49:03.020Z,97794.81
2018-06-23T08:51:30.811Z,97777.64
2018-06-23T08:53:58.313Z,97778.43
2018-06-23T08:56:25.808Z,97773.72
2018-06-23T08:58:53.253Z,97773.56
2018-06-23T09:01:20.670Z,97769.93
2018-06-23T09:03:48.142Z,97768.40
2018-06-23T09:06:15.763Z,97769.47
2018-06-23T09:08:43.223Z,97759.80
2018-06-23T09:11:10.773Z,97758.60
2018-06-23T09:13:38.317Z,97764.51
2018-06-23T09:16:05.766Z,97762.49
2018-06-23T09:18:33.372Z,97757.71
2018-06-23T09:21:00.914Z,97757.67
2018-06-23T09:23:28.341Z,97757.56
2018-06-23T09:25:56.042Z,97757.94
2018-06-23T09:28:23.596Z,97759.09
2018-06-23T09:30:51.042Z,97756.17
2018-06-23T09:33:18.478Z,97762.16
2018-06-23T09:35:45.955Z,97762.45
2018-06-23T09:38:13.531Z,97763.41
2018-06-23T09:40:40.981Z,97761.22
2018-06-23T09:43:08.462Z,97760.02
2018-06-23T09:45:35.895Z,97757.31
2018-06-23T09:48:03.482Z,97763.12
2018-06-23T09:50:30.969Z,97758.30
2018-06-23T09:52:58.476Z,97759.20
2018-06-23T09:55:25.921Z,97749.45
2018-06-23T09:57:53.365Z,97754.15
2018-06-23T10:00:21.048Z,97754.33
2018-06-23T10:02:48.675Z,97754.53
2018-06-23T10:05:16.386Z,97749.94
2018-06-23T10:07:43.830Z,97743.52
2018-06-23T10:10:11.292Z,97746.78
2018-06-23T10:12:38.751Z,97739.57
2018-06-23T10:15:06.276Z,97732.70
2018-06-23T10:17:33.812Z,97737.61
2018-06-23T10:20:00.841Z,97736.80
2018-06-23T10:22:27.890Z,97737.28
2018-06-23T10:24:54.882Z,97731.66
2018-06-23T10:27:21.979Z,97728.07
2018-06-23T10:29:48.996Z,97735.56
2018-06-23T10:32:15.996Z,97716.28
2018-06-23T10:34:43.557Z,97719.78
2018-06-23T10:37:10.492Z,97724.28
2018-06-23T10:39:37.510Z,97726.75
2018-06-23T10:42:04.873Z,97723.91
2018-06-23T10:44:32.213Z,97722.52
2018-06-23T10:46:59.252Z,97719.95
2018-06-23T10:49:26.905Z,97725.22
2018-06-23T10:51:54.114Z,97720.69
2018-06-23T10:54:21.310Z,97713.41
2018-06-23T10:56:48.401Z,97715.23
2018-06-23T10:59:15.417Z,97715.41
2018-06-23T11:01:42.486Z,97715.00
2018-06-23T11:04:09.534Z,97716.25
2018-06-23T11:06:36.635Z,97705.38
2018-06-23T11:09:03.603Z,97709.41
2018-06-23T11:11:31.036Z,97702.89
2018-06-23T11:13:58.084Z,97706.15
2018-06-23T11:16:25.250Z,97706.27
2018-06-23T11:18:52.221Z,97708.22
2018-06-23T11:21:19.230Z,97704.25
2018-06-23T11:23:46.206Z,97702.42
2018-06-23T11:26:13.281Z,97704.20
2018-06-23T11:28:40.272Z,97692.08
2018-06-23T11:31:07.280Z,97699.05
2018-06-23T11:33:34.994Z,97698.67
2018-06-23T11:36:01.993Z,97687.22
2018-06-23T11:38:28.985Z,97689.19
2018-06-23T11:40:55.919Z,97677.08
2018-06-23T11:43:22.889Z,97692.47
2018-06-23T11:45:50.575Z,97678.37
2018-06-23T11:48:17.588Z,97675.70
2018-06-23T11:50:44.630Z,97674.36
2018-06-23T11:53:11.760Z,97674.39
2018-06-23T11:55:38.724Z,97677.40
2018-06-23T11:58:05.855Z,97675.55
2018-06-23T12:00:33.500Z,97671.86
2018-06-23T12:03:00.935Z,97672.45
2018-06-23T12:05:28.611Z,97661.77
2018-06-23T12:07:56.077Z,97671.51
2018-06-23T12:10:23.254Z,97670.86
2018-06-23T12:12:50.356Z,97669.08
2018-06-23T12:15:17.344Z,97669.20
2018-06-23T12:17:44.364Z,97661.67
2018-06-23T12:20:11.413Z,97662.78
2018-06-23T12:22:38.554Z,97656.23
2018-06-23T12:25:05.714Z,97651.66
2018-06-23T12:27:32.750Z,97655.21
2018-06-23T12:30:00.215Z,97646.91
2018-06-23T12:32:27.182Z,97642.06
2018-06-23T12:34:54.759Z,97634.31
2018-06-23T12:37:22.237Z,97634.17
2018-06-23T12:39:49.909Z,97629.45
2018-06-23T12:42:16.973Z,97633.06
2018-06-23T12:44:43.997Z,97630.11
2018-06-23T12:47:11.803Z,97628.82
2018-06-23T12:49:39.217Z,97628.63
2018-06-23T12:52:06.268Z,97615.78
2018-06-23T12:54:33.315Z,97620.30
2018-06-23T12:57:00.355Z,97623.13
2018-06-23T12:59:27.405Z,97612.78
2018-06-23T13:01:54.656Z,97616.75
2018-06-23T13:04:21.655Z,97609.59
2018-06-23T13:06:49.051Z,97600.95
2018-06-23T13:09:16.602Z,97607.45
2018-06-23T13:11:44.129Z,97605.36
2018-06-23T13:14:11.627Z,97607.33
2018-06-23T13:16:39.172Z,97603.27
2018-06-23T13:19:06.617Z,97597.80
2018-06-23T13:21:34.133Z,97599.34
2018-06-23T13:24:01.617Z,97597.17
2018-06-23T13:26:29.066Z,97593.08
2018-06-23T13:28:56.626Z,97597.03
2018-06-23T13:31:24.114Z,97590.89
2018-06-23T13:33:51.553Z,97591.94
2018-06-23T13:36:19.082Z,97591.59
2018-06-23T13:38:46.635Z,97591.13
2018-06-23T13:41:14.102Z,97587.23
2018-06-23T13:43:41.507Z,97581.62
2018-06-23T13:46:10.065Z,97580.00
2018-06-23T13:48:37.473Z,97584.09
2018-06-23T13:51:04.909Z,97577.79
2018-06-23T13:53:32.348Z,97583.16
2018-06-23T13:55:59.908Z,97571.38
2018-06-23T13:58:27.537Z,97572.23
2018-06-23T14:00:54.930Z,97567.91
2018-06-23T14:03:22.492Z,97565.32
2018-06-23T14:05:49.900Z,97555.52
2018-06-23T14:08:17.744Z,97559.32
2018-06-23T14:10:45.176Z,97554.14
2018-06-23T14:13:12.788Z,97553.32
2018-06-23T14:15:40.300Z,97548.48
2018-06-23T14:18:08.394Z,97550.05
2018-06-23T14:20:35.904Z,97548.83
2018-06-23T14:23:03.417Z,97543.44
2018-06-23T14:25:30.820Z,97543.48
2018-06-23T14:27:58.326Z,97536.92
2018-06-23T14:30:25.935Z,97543.47
2018-06-23T14:32:53.403Z,97538.23
2018-06-23T14:35:20.842Z,97540.66
2018-06-23T14:37:48.330Z,97536.80
2018-06-23T14:40:15.871Z,97540.20
2018-06-23T14:42:43.271Z,97536.06
2018-06-23T14:45:10.694Z,97521.31
2018-06-23T14:47:38.317Z,97533.73
2018-06-23T14:50:05.821Z,97528.87
2018-06-23T14:52:33.264Z,97530.96
2018-06-23T14:55:00.741Z,97532.25
2018-06-23T14:57:28.201Z,97525.49
2018-06-23T14:59:55.694Z,97523.06
2018-06-23T15:02:23.127Z,97519.02
2018-06-23T15:04:50.663Z,97526.84
2018-06-23T15:07:18.316Z,97525.38
2018-06-23T15:13:07.852Z,97521.12
2018-06-23T15:15:35.375Z,97520.20
2018-06-23T15:18:02.950Z,97517.06
2018-06-23T15:20:30.398Z,97512.83
2018-06-23T15:22:57.924Z,97516.47
2018-06-23T15:25:25.652Z,97506.80
2018-06-23T15:27:53.134Z,97516.23
2018-06-23T15:30:20.535Z,97511.11
2018-06-23T15:32:48.005Z,97506.34
2018-06-23T15:35:15.515Z,97504.50
2018-06-23T15:37:43.001Z,97505.80
2018-06-23T15:40:10.497Z,97506.74
2018-06-23T15:42:37.962Z,97501.64
2018-06-23T15:45:06.239Z,97510.46
2018-06-23T15:47:33.684Z,97501.82
2018-06-23T15:50:01.139Z,97499.55
2018-06-23T15:52:28.584Z,97496.13
2018-06-23T15:54:56.152Z,97494.36
2018-06-23T15:57:23.785Z,97487.53
2018-06-23T15:59:51.265Z,97487.95
2018-06-23T16:02:18.763Z,97486.05
2018-06-23T16:04:46.249Z,97479.12
2018-06-23T16:07:13.783Z,97478.67
2018-06-23T16:09:41.195Z,97475.55
2018-06-23T16:12:08.655Z,97480.14
2018-06-23T16:14:36.200Z,97475.09
2018-06-23T16:17:03.776Z,97480.06
2018-06-23T16:19:31.227Z,97471.91
2018-06-23T16:21:58.697Z,97476.77
2018-06-23T16:24:26.587Z,97476.56
2018-06-23T16:26:54.029Z,97473.64
2018-06-23T16:29:21.491Z,97472.58
2018-06-23T16:31:49.139Z,97472.43
2018-06-23T16:34:16.536Z,97474.70
2018-06-23T16:36:44.080Z,97470.38
2018-06-23T16:39:11.580Z,97473.23
2018-06-23T16:41:39.066Z,97472.66
2018-06-23T16:44:06.658Z,97471.59
2018-06-23T16:46:34.105Z,97470.34
2018-06-23T16:49:01.630Z,97472.12
2018-06-23T16:51:29.133Z,97472.78
2018-06-23T16:53:57.850Z,97475.98
2018-06-23T16:56:25.367Z,97480.11
2018-06-23T16:58:52.859Z,97468.00
2018-06-23T17:01:20.299Z,97476.80
2018-06-23T17:03:47.950Z,97468.83
2018-06-23T17:06:15.358Z,97471.06
2018-06-23T17:08:42.836Z,97467.06
2018-06-23T17:11:10.441Z,97461.57
2018-06-23T17:13:38.076Z,97460.38
2018-06-23T17:16:05.937Z,97459.08
2018-06-23T17:18:33.531Z,97458.08
2018-06-23T17:21:00.979Z,97463.59
2018-06-23T17:23:28.530Z,97462.34
2018-06-23T17:25:55.995Z,97461.31
2018-06-23T17:28:23.414Z,97459.19
2018-06-23T17:30:50.955Z,97456.29
2018-06-23T17:33:18.363Z,97465.48
2018-06-23T17:35:46.227Z,97459.59
2018-06-23T17:38:13.843Z,97459.56
2018-06-23T17:40:41.311Z,97462.77
2018-06-23T17:43:08.760Z,97461.83
2018-06-23T17:45:36.199Z,97467.98
2018-06-23T17:48:03.649Z,97460.45
2018-06-23T17:50:31.104Z,97459.76
2018-06-23T17:52:58.635Z,97471.40
2018-06-23T17:55:26.180Z,97463.59
2018-06-23T17:57:53.830Z,97463.73
2018-06-23T18:00:21.078Z,97473.20
2018-06-23T18:02:48.585Z,97469.44
2018-06-23T18:05:16.036Z,97475.69
2018-06-23T18:07:43.480Z,97467.81
2018-06-23T18:10:10.946Z,97467.30
2018-06-23T18:12:38.469Z,97472.36
2018-06-23T18:15:06.081Z,97467.78
2018-06-23T18:17:33.943Z,97474.28
2018-06-23T18:20:01.392Z,97483.10
2018-06-23T18:22:28.869Z,97482.02
2018-06-23T18:24:56.549Z,97472.77
2018-06-23T18:27:23.978Z,97471.73
2018-06-23T18:29:51.859Z,97466.41
2018-06-23T18:32:19.424Z,97473.09
2018-06-23T18:34:46.846Z,97473.04
2018-06-23T18:37:14.259Z,97470.69
2018-06-23T18:39:41.731Z,97478.53
2018-06-23T18:42:09.149Z,97472.64
2018-06-23T18:44:36.617Z,97479.35
2018-06-23T18:47:04.265Z,97473.33
2018-06-23T18:49:32.496Z,97474.70
2018-06-23T18:52:00.030Z,97474.89
2018-06-23T18:54:27.532Z,97486.59
2018-06-23T18:56:55.102Z,97488.78
2018-06-23T18:59:22.615Z,97491.13
2018-06-23T19:01:50.065Z,97491.61
2018-06-23T19:04:17.606Z,97493.19
2018-06-23T19:06:45.068Z,97495.29
2018-06-23T19:09:12.569Z,97498.69
2018-06-23T19:11:40.064Z,97499.11
2018-06-23T19:14:07.516Z,97497.11
2018-06-23T19:16:35.024Z,97497.92
2018-06-23T19:19:02.539Z,97502.24
2018-06-23T19:21:29.968Z,97494.95
2018-06-23T19:23:57.449Z,97494.84
2018-06-23T19:26:25.091Z,97504.44
2018-06-23T19:28:52.572Z,97507.52
2018-06-23T19:31:20.032Z,97512.50
2018-06-23T19:33:47.509Z,97508.79
2018-06-23T19:36:14.977Z,97514.55
2018-06-23T19:38:42.422Z,97510.20
2018-06-23T19:41:09.945Z,97518.44
2018-06-23T19:43:37.404Z,97518.50
2018-06-23T19:46:04.810Z,97515.95
2018-06-23T19:48:32.278Z,97515.14
2018-06-23T19:50:59.706Z,97521.93
2018-06-23T19:53:27.212Z,97524.51
2018-06-23T19:55:54.651Z,97532.78
2018-06-23T19:58:22.068Z,97536.30
2018-06-23T20:00:49.505Z,97533.41
2018-06-23T20:03:16.918Z,97544.69
2018-06-23T20:05:44.369Z,97538.83
2018-06-23T20:08:11.979Z,97541.82
2018-06-23T20:10:39.418Z,97545.64
2018-06-23T20:13:06.855Z,97540.69
2018-06-23T20:15:34.314Z,97552.67
2018-06-23T20:18:01.964Z,97558.00
2018-06-23T20:20:29.380Z,97559.88
2018-06-23T20:22:56.799Z,97565.61
2018-06-23T20:25:24.292Z,97569.70
2018-06-23T20:27:51.762Z,97565.72
2018-06-23T20:30:19.212Z,97565.35
2018-06-23T20:32:46.651Z,97570.14
2018-06-23T20:35:14.095Z,97567.56
2018-06-23T20:37:41.631Z,97562.56
2018-06-23T20:40:09.088Z,97563.75
2018-06-23T20:42:36.570Z,97563.98
2018-06-23T20:45:04.828Z,97564.26
2018-06-23T20:47:32.344Z,97565.86
2018-06-23T20:49:59.866Z,97561.22
2018-06-23T20:52:27.333Z,97558.87
2018-06-23T20:54:54.840Z,97566.28
2018-06-23T20:57:22.329Z,97558.97
2018-06-23T20:59:49.911Z,97563.41
2018-06-23T21:02:17.347Z,97563.31
2018-06-23T21:04:44.812Z,97567.39
2018-06-23T21:07:12.283Z,97560.99
2018-06-23T21:09:39.732Z,97559.28
2018-06-23T21:12:07.196Z,97561.20
2018-06-23T21:14:34.663Z,97559.78
2018-06-23T21:17:02.141Z,97559.78
2018-06-23T21:19:29.567Z,97561.66
2018-06-23T21:21:57.102Z,97561.09
2018-06-23T21:24:24.608Z,97558.33
2018-06-23T21:26:52.133Z,97556.72
2018-06-23T21:29:19.611Z,97556.91
2018-06-23T21:31:47.063Z,97549.17
2018-06-23T21:34:14.500Z,97549.64
2018-06-23T21:36:41.986Z,97550.56
2018-06-23T21:39:09.552Z,97546.37
2018-06-23T21:41:37.035Z,97550.84
2018-06-23T21:44:04.577Z,97549.03
2018-06-23T21:46:31.981Z,97547.64
2018-06-23T21:48:59.482Z,97545.28
2018-06-23T21:51:26.962Z,97543.95
2018-06-23T21:53:54.374Z,97550.25
2018-06-23T21:56:21.835Z,97551.36
2018-06-23T21:58:49.419Z,97550.08
2018-06-23T22:01:16.926Z,97550.74
2018-06-23T22:03:45.186Z,97550.23
2018-06-23T22:06:12.614Z,97546.87
2018-06-23T22:08:40.240Z,97555.37
2018-06-23T22:11:07.776Z,97557.90
2018-06-23T22:13:35.289Z,97559.81
2018-06-23T22:16:02.687Z,97551.85
2018-06-23T22:18:30.264Z,97554.60
2018-06-23T22:20:57.677Z,97554.66
2018-06-23T22:23:25.284Z,97554.71
2018-06-23T22:25:52.769Z,97555.43
2018-06-23T22:28:20.189Z,97549.61
2018-06-23T22:30:47.602Z,97554.72
2018-06-23T22:33:15.169Z,97550.56
2018-06-23T22:35:42.608Z,97550.78
2018-06-23T22:38:10.055Z,97552.47
2018-06-23T22:40:37.456Z,97560.18
2018-06-23T22:43:04.901Z,97554.24
2018-06-23T22:45:32.328Z,97548.63
2018-06-23T22:47:59.879Z,97550.05
2018-06-23T22:50:27.317Z,97547.14
2018-06-23T22:52:54.730Z,97551.34
2018-06-23T22:55:22.178Z,97547.36
2018-06-23T22:57:49.654Z,97546.08
2018-06-23T23:00:17.344Z,97545.81
2018-06-23T23:02:44.745Z,97549.60
2018-06-23T23:05:12.168Z,97548.57
2018-06-23T23:07:39.714Z,97545.63
2018-06-23T23:10:07.603Z,97551.80
2018-06-23T23:12:34.986Z,97548.52
2018-06-23T23:15:02.672Z,97554.55
2018-06-23T23:17:30.131Z,97557.52
2018-06-23T23:19:57.550Z,97549.33
2018-06-23T23:22:25.030Z,97547.70
2018-06-23T23:24:52.471Z,97550.44
2018-06-23T23:27:19.966Z,97550.73
2018-06-23T23:29:47.458Z,97559.27
2018-06-23T23:32:14.895Z,97556.27
2018-06-23T23:34:42.347Z,97550.24
2018-06-23T23:37:09.817Z,97548.01
2018-06-23T23:39:37.368Z,97548.98
2018-06-23T23:42:04.896Z,97544.92
2018-06-23T23:44:32.505Z,97544.63
2018-06-23T23:46:59.929Z,97543.17
2018-06-23T23:49:27.402Z,97548.12
2018-06-23T23:51:54.878Z,97544.42
2018-06-23T23:54:22.315Z,97541.89
2018-06-23T23:56:49.797Z,97533.22
2018-06-23T23:59:17.290Z,97534.83
